createdAt,value
2019-06-26T00:01:10.502Z,7.70
2019-06-26T00:03:14.566Z,7.72
2019-06-26T00:05:18.481Z,8.67
2019-06-26T00:07:22.746Z,8.08
2019-06-26T00:09:26.771Z,8.58
2019-06-26T00:11:30.777Z,10.10
2019-06-26T00:13:34.891Z,8.85
2019-06-26T00:15:38.968Z,8.13
2019-06-26T00:17:42.961Z,10.93
2019-06-26T00:19:47.041Z,10.72
2019-06-26T00:21:51.162Z,8.15
2019-06-26T00:23:55.195Z,10.08
2019-06-26T00:25:59.354Z,9.90
2019-06-26T00:28:03.536Z,8.68
2019-06-26T00:30:09.535Z,9.65
2019-06-26T00:32:13.671Z,8.98
2019-06-26T00:34:17.799Z,10.93
2019-06-26T00:36:21.952Z,10.95
2019-06-26T00:38:26.071Z,10.20
2019-06-26T00:40:30.185Z,11.33
2019-06-26T00:42:34.160Z,9.05
2019-06-26T00:44:38.275Z,12.53
2019-06-26T00:46:42.370Z,11.08
2019-06-26T00:48:46.431Z,10.60
2019-06-26T00:50:50.451Z,12.58
2019-06-26T00:52:54.480Z,10.63
2019-06-26T00:54:58.587Z,10.75
2019-06-26T00:57:02.954Z,13.25
2019-06-26T00:59:07.051Z,11.80
2019-06-26T01:01:11.186Z,12.65
2019-06-26T01:03:15.287Z,12.05
2019-06-26T01:05:19.429Z,13.83
2019-06-26T01:07:23.529Z,11.30
2019-06-26T01:09:27.775Z,11.38
2019-06-26T01:11:31.963Z,11.57
2019-06-26T01:13:36.032Z,13.83
2019-06-26T01:15:40.111Z,14.07
2019-06-26T01:17:44.229Z,14.15
2019-06-26T01:19:48.381Z,13.28
2019-06-26T01:21:52.511Z,14.23
2019-06-26T01:23:56.539Z,14.68
2019-06-26T01:26:00.607Z,14.45
2019-06-26T01:28:04.750Z,11.93
2019-06-26T01:30:08.939Z,12.58
2019-06-26T01:32:13.152Z,14.75
2019-06-26T01:34:17.219Z,15.70
2019-06-26T01:36:21.174Z,12.58
2019-06-26T01:38:26.167Z,14.43
2019-06-26T01:40:30.454Z,16.62
2019-06-26T01:42:34.501Z,16.57
2019-06-26T01:44:38.551Z,14.43
2019-06-26T01:46:42.691Z,14.35
2019-06-26T01:48:46.621Z,14.70
2019-06-26T01:50:50.841Z,16.32
2019-06-26T01:52:55.014Z,17.95
2019-06-26T01:54:59.059Z,16.65
2019-06-26T01:57:03.086Z,13.85
2019-06-26T01:59:07.397Z,19.15
2019-06-26T02:01:11.559Z,18.15
2019-06-26T02:03:16.069Z,18.37
2019-06-26T02:05:20.211Z,16.62
2019-06-26T02:07:24.251Z,15.93
2019-06-26T02:09:28.339Z,18.07
2019-06-26T02:11:32.700Z,16.05
2019-06-26T02:13:36.900Z,20.92
2019-06-26T02:15:41.012Z,17.30
2019-06-26T02:17:45.112Z,18.07
2019-06-26T02:19:49.358Z,18.23
2019-06-26T02:21:53.452Z,16.20
2019-06-26T02:23:57.810Z,17.87
2019-06-26T02:26:01.958Z,14.63
2019-06-26T02:28:06.074Z,16.20
2019-06-26T02:30:10.351Z,14.05
2019-06-26T02:32:14.471Z,14.60
2019-06-26T02:34:18.619Z,15.18
2019-06-26T02:36:23.173Z,14.53
2019-06-26T02:38:27.771Z,15.90
2019-06-26T02:40:32.391Z,16.15
2019-06-26T02:42:36.872Z,16.85
2019-06-26T02:44:53.242Z,14.13
2019-06-26T02:46:46.901Z,15.23
2019-06-26T02:48:51.202Z,17.30
2019-06-26T02:50:56.201Z,18.70
2019-06-26T02:53:02.054Z,18.15
2019-06-26T02:55:08.000Z,18.82
2019-06-26T02:57:12.621Z,20.27
2019-06-26T02:59:17.093Z,22.75
2019-06-26T03:01:21.910Z,21.50
2019-06-26T03:03:25.917Z,20.65
2019-06-26T03:05:30.444Z,21.80
2019-06-26T03:07:34.842Z,26.73
2019-06-26T03:09:39.643Z,20.27
2019-06-26T03:11:44.174Z,18.62
2019-06-26T03:13:48.501Z,21.12
2019-06-26T03:15:52.583Z,19.67
2019-06-26T03:17:56.621Z,20.15
2019-06-26T03:20:00.812Z,20.55
2019-06-26T03:22:04.891Z,18.20
2019-06-26T03:24:08.974Z,24.63
2019-06-26T03:26:13.120Z,21.80
2019-06-26T03:28:17.120Z,19.85
2019-06-26T03:30:21.221Z,21.53
2019-06-26T03:32:25.322Z,18.32
2019-06-26T03:34:29.341Z,20.35
2019-06-26T03:36:33.474Z,20.70
2019-06-26T03:38:37.724Z,22.65
2019-06-26T03:40:42.322Z,20.57
2019-06-26T03:42:46.471Z,17.52
2019-06-26T03:44:50.641Z,21.87
2019-06-26T03:46:54.751Z,23.92
2019-06-26T03:48:58.844Z,20.77
2019-06-26T03:51:02.941Z,17.87
2019-06-26T03:53:07.068Z,21.42
2019-06-26T03:55:11.623Z,23.35
2019-06-26T03:57:15.801Z,24.52
2019-06-26T03:59:20.071Z,26.65
2019-06-26T04:01:24.140Z,26.65
2019-06-26T04:03:28.342Z,27.73
2019-06-26T04:05:32.381Z,31.40
2019-06-26T04:07:36.619Z,26.50
2019-06-26T04:09:40.789Z,25.15
2019-06-26T04:11:44.762Z,26.70
2019-06-26T04:13:48.770Z,24.35
2019-06-26T04:15:52.831Z,26.70
2019-06-26T04:17:56.810Z,23.22
2019-06-26T04:20:00.778Z,25.77
2019-06-26T04:22:05.110Z,28.83
2019-06-26T04:24:09.196Z,32.20
2019-06-26T04:26:13.380Z,22.48
2019-06-26T04:28:17.438Z,28.12
2019-06-26T04:30:21.991Z,33.63
2019-06-26T04:32:26.131Z,26.07
2019-06-26T04:34:30.388Z,29.23
2019-06-26T04:36:34.538Z,29.72
2019-06-26T04:38:38.705Z,32.88
2019-06-26T04:40:43.122Z,35.65
2019-06-26T04:42:47.040Z,37.60
2019-06-26T04:44:51.198Z,19.80
2019-06-26T04:46:55.270Z,31.57
2019-06-26T04:48:59.408Z,29.80
2019-06-26T04:51:03.480Z,30.68
2019-06-26T04:53:07.538Z,29.98
2019-06-26T04:55:11.751Z,27.70
2019-06-26T04:57:15.756Z,29.70
2019-06-26T04:59:19.811Z,25.17
2019-06-26T05:01:23.881Z,24.55
2019-06-26T05:03:27.914Z,20.85
2019-06-26T05:05:39.412Z,23.02
2019-06-26T05:07:37.648Z,24.55
2019-06-26T05:09:41.650Z,18.52
2019-06-26T05:11:45.771Z,21.25
2019-06-26T05:13:49.798Z,22.85
2019-06-26T05:15:53.854Z,17.20
2019-06-26T05:17:58.180Z,16.80
2019-06-26T05:20:02.288Z,15.68
2019-06-26T05:22:06.268Z,13.65
2019-06-26T05:24:10.419Z,11.88
2019-06-26T05:26:14.463Z,15.85
2019-06-26T05:28:18.750Z,12.25
2019-06-26T05:30:24.130Z,10.40
2019-06-26T05:32:28.462Z,15.70
2019-06-26T05:34:32.918Z,10.53
2019-06-26T05:36:37.601Z,14.38
2019-06-26T05:38:41.918Z,11.00
2019-06-26T05:40:45.973Z,12.37
2019-06-26T05:42:50.041Z,15.32
2019-06-26T05:44:54.042Z,13.93
2019-06-26T05:46:58.138Z,11.60
2019-06-26T05:49:02.291Z,9.13
2019-06-26T05:51:06.280Z,11.08
2019-06-26T05:53:10.339Z,13.10
2019-06-26T05:55:15.360Z,10.90
2019-06-26T05:57:19.481Z,11.55
2019-06-26T05:59:23.500Z,10.13
2019-06-26T06:01:27.530Z,10.03
2019-06-26T06:03:31.531Z,8.95
2019-06-26T06:05:35.610Z,9.70
2019-06-26T06:07:39.856Z,9.08
2019-06-26T06:09:43.942Z,8.65
2019-06-26T06:11:47.931Z,6.08
2019-06-26T06:13:52.186Z,8.95
2019-06-26T06:15:56.280Z,8.83
2019-06-26T06:18:00.417Z,8.95
2019-06-26T06:20:06.591Z,9.58
2019-06-26T06:22:10.630Z,12.60
2019-06-26T06:24:14.772Z,8.95
2019-06-26T06:26:18.869Z,12.53
2019-06-26T06:28:22.780Z,8.68
2019-06-26T06:30:26.930Z,11.68
2019-06-26T06:32:30.972Z,7.47
2019-06-26T06:34:34.916Z,6.33
2019-06-26T06:36:38.931Z,11.85
2019-06-26T06:38:42.941Z,9.78
2019-06-26T06:40:46.958Z,8.93
2019-06-26T06:42:51.138Z,12.68
2019-06-26T06:44:55.427Z,9.93
2019-06-26T06:47:03.672Z,10.55
2019-06-26T06:49:05.298Z,11.00
2019-06-26T06:51:09.428Z,9.48
2019-06-26T06:53:13.590Z,10.35
2019-06-26T06:55:17.838Z,7.43
2019-06-26T06:57:22.037Z,15.72
2019-06-26T06:59:26.231Z,10.25
2019-06-26T07:01:30.488Z,11.10
2019-06-26T07:03:34.560Z,9.33
2019-06-26T07:05:38.598Z,13.18
2019-06-26T07:07:42.740Z,13.10
2019-06-26T07:09:46.938Z,9.53
2019-06-26T07:11:51.093Z,10.15
2019-06-26T07:13:55.090Z,10.03
2019-06-26T07:15:59.161Z,9.83
2019-06-26T07:18:03.372Z,8.03
2019-06-26T07:20:08.941Z,7.30
2019-06-26T07:22:13.060Z,7.08
2019-06-26T07:24:17.141Z,7.03
2019-06-26T07:26:21.229Z,9.13
2019-06-26T07:28:25.451Z,7.95
2019-06-26T07:30:29.618Z,13.83
2019-06-26T07:32:33.712Z,8.28
2019-06-26T07:34:37.944Z,8.13
2019-06-26T07:36:42.071Z,6.47
2019-06-26T07:38:46.050Z,10.90
2019-06-26T07:40:50.129Z,16.05
2019-06-26T07:42:55.181Z,8.58
2019-06-26T07:44:59.379Z,12.63
2019-06-26T07:47:03.651Z,7.40
2019-06-26T07:49:07.729Z,8.13
2019-06-26T07:51:11.829Z,9.58
2019-06-26T07:53:15.952Z,12.68
2019-06-26T07:55:20.122Z,8.53
2019-06-26T07:57:24.190Z,8.40
2019-06-26T07:59:28.470Z,11.73
2019-06-26T08:01:32.591Z,8.45
2019-06-26T08:03:36.620Z,11.78
2019-06-26T08:05:42.943Z,12.73
2019-06-26T08:07:46.450Z,9.08
2019-06-26T08:09:50.453Z,9.50
2019-06-26T08:11:54.570Z,9.98
2019-06-26T08:13:58.475Z,10.40
2019-06-26T08:16:23.824Z,8.58
2019-06-26T08:21:26.703Z,10.28
2019-06-26T08:23:30.625Z,10.82
2019-06-26T08:25:34.549Z,11.08
2019-06-26T08:27:38.451Z,7.53
2019-06-26T08:29:43.445Z,8.88
2019-06-26T08:31:47.386Z,9.05
2019-06-26T08:33:51.301Z,9.75
2019-06-26T08:35:55.217Z,17.20
2019-06-26T08:38:09.903Z,7.25
2019-06-26T08:40:07.304Z,12.40
2019-06-26T08:42:11.213Z,9.63
2019-06-26T08:44:15.098Z,10.38
2019-06-26T08:46:19.026Z,9.18
2019-06-26T08:48:42.086Z,11.28
2019-06-26T08:50:46.228Z,6.97
2019-06-26T08:52:50.229Z,8.88
2019-06-26T08:54:54.270Z,10.18
2019-06-26T08:56:58.548Z,8.05
2019-06-26T08:59:02.596Z,7.47
2019-06-26T09:01:06.508Z,8.83
2019-06-26T09:03:10.656Z,9.73
2019-06-26T09:05:14.718Z,10.80
2019-06-26T09:07:18.790Z,10.00
2019-06-26T09:09:22.879Z,10.55
2019-06-26T09:11:26.978Z,7.12
2019-06-26T09:13:31.161Z,9.20
2019-06-26T09:15:35.188Z,8.65
2019-06-26T09:17:58.145Z,9.80
2019-06-26T09:20:02.247Z,9.98
2019-06-26T09:22:08.001Z,12.25
2019-06-26T09:24:12.069Z,9.03
2019-06-26T09:26:16.009Z,11.30
2019-06-26T09:28:20.088Z,6.37
2019-06-26T09:30:24.126Z,9.00
2019-06-26T09:32:28.127Z,13.50
2019-06-26T09:34:32.280Z,16.97
2019-06-26T09:36:36.389Z,13.72
2019-06-26T09:38:40.563Z,10.60
2019-06-26T09:40:44.758Z,15.03
2019-06-26T09:42:48.808Z,10.85
2019-06-26T09:44:52.776Z,12.93
2019-06-26T09:46:56.750Z,11.95
2019-06-26T09:49:00.964Z,12.07
2019-06-26T09:51:05.068Z,9.90
2019-06-26T09:53:09.253Z,11.73
2019-06-26T09:55:13.415Z,9.40
2019-06-26T09:57:17.394Z,9.23
2019-06-26T09:59:21.616Z,14.50
2019-06-26T10:01:25.908Z,20.05
2019-06-26T10:03:29.940Z,15.43
2019-06-26T10:05:34.089Z,14.23
2019-06-26T10:07:38.248Z,15.65
2019-06-26T10:09:42.319Z,15.72
2019-06-26T10:11:46.578Z,14.90
2019-06-26T10:13:50.581Z,15.70
2019-06-26T10:15:54.546Z,15.83
2019-06-26T10:17:58.624Z,13.70
2019-06-26T10:20:02.569Z,15.15
2019-06-26T10:22:06.718Z,13.38
2019-06-26T10:24:11.019Z,15.23
2019-06-26T10:26:14.998Z,17.52
2019-06-26T10:28:22.718Z,18.57
2019-06-26T10:30:26.885Z,19.57
2019-06-26T10:32:31.097Z,21.48
2019-06-26T10:34:35.159Z,16.73
2019-06-26T10:36:39.311Z,18.45
2019-06-26T10:38:43.422Z,18.07
2019-06-26T10:40:47.498Z,14.75
2019-06-26T10:42:51.638Z,18.25
2019-06-26T10:44:55.616Z,12.68
2019-06-26T10:46:59.611Z,15.03
2019-06-26T10:49:03.888Z,15.88
2019-06-26T10:51:07.853Z,16.23
2019-06-26T10:53:11.938Z,16.85
2019-06-26T10:55:16.088Z,15.98
2019-06-26T10:57:20.019Z,15.75
2019-06-26T10:59:24.053Z,16.57
2019-06-26T11:01:28.088Z,18.15
2019-06-26T11:03:32.168Z,14.98
2019-06-26T11:05:36.265Z,16.75
2019-06-26T11:07:40.398Z,16.75
2019-06-26T11:09:44.536Z,15.45
2019-06-26T11:11:48.680Z,15.93
2019-06-26T11:13:52.770Z,17.07
2019-06-26T11:15:56.839Z,17.52
2019-06-26T11:18:00.798Z,13.83
2019-06-26T11:20:09.129Z,16.97
2019-06-26T11:22:13.078Z,14.50
2019-06-26T11:24:17.034Z,14.90
2019-06-26T11:26:21.188Z,16.52
2019-06-26T11:28:25.194Z,14.40
2019-06-26T11:30:29.413Z,13.85
2019-06-26T11:32:33.656Z,17.55
2019-06-26T11:34:37.689Z,13.78
2019-06-26T11:36:41.649Z,14.25
2019-06-26T11:38:45.779Z,12.73
2019-06-26T11:40:49.858Z,14.38
2019-06-26T11:42:53.991Z,12.28
2019-06-26T11:44:59.317Z,15.03
2019-06-26T11:47:03.439Z,13.75
2019-06-26T11:49:07.420Z,14.10
2019-06-26T11:51:11.547Z,12.37
2019-06-26T11:53:15.732Z,13.00
2019-06-26T11:55:20.387Z,15.37
2019-06-26T11:57:24.459Z,16.80
2019-06-26T11:59:28.471Z,13.48
2019-06-26T12:01:32.705Z,13.10
2019-06-26T12:03:36.897Z,17.25
2019-06-26T12:05:40.935Z,16.65
2019-06-26T12:07:45.048Z,15.32
2019-06-26T12:09:49.205Z,13.53
2019-06-26T12:11:53.428Z,16.60
2019-06-26T12:14:00.308Z,14.30
2019-06-26T12:16:04.388Z,16.00
2019-06-26T12:18:08.502Z,13.65
2019-06-26T12:20:19.383Z,17.07
2019-06-26T12:22:18.858Z,17.05
2019-06-26T12:24:26.336Z,11.55
2019-06-26T12:26:30.701Z,15.18
2019-06-26T12:28:34.958Z,10.90
2019-06-26T12:30:39.058Z,13.03
2019-06-26T12:33:01.220Z,9.68
2019-06-26T12:34:48.666Z,14.63
2019-06-26T12:36:52.821Z,13.03
2019-06-26T12:38:59.620Z,11.73
2019-06-26T12:41:03.789Z,13.60
2019-06-26T12:43:10.993Z,11.03
2019-06-26T12:45:16.027Z,10.43
2019-06-26T12:47:20.198Z,10.88
2019-06-26T12:49:24.187Z,10.93
2019-06-26T12:51:28.188Z,11.57
2019-06-26T12:53:32.388Z,9.30
2019-06-26T12:55:36.598Z,8.68
2019-06-26T12:57:40.578Z,11.03
2019-06-26T12:59:57.337Z,11.18
2019-06-26T13:01:53.342Z,9.75
2019-06-26T13:03:57.550Z,8.88
2019-06-26T13:06:01.717Z,10.88
2019-06-26T13:08:05.695Z,8.75
2019-06-26T13:10:12.869Z,11.15
2019-06-26T13:12:17.011Z,6.78
2019-06-26T13:14:21.014Z,9.93
2019-06-26T13:16:25.107Z,10.28
2019-06-26T13:18:29.332Z,10.40
2019-06-26T13:20:33.513Z,9.20
2019-06-26T13:22:37.646Z,8.25
2019-06-26T13:24:43.934Z,7.67
2019-06-26T13:26:54.135Z,9.10
2019-06-26T13:28:55.788Z,8.70
2019-06-26T13:30:59.896Z,7.10
2019-06-26T13:33:03.928Z,9.88
2019-06-26T13:35:08.239Z,8.75
2019-06-26T13:37:12.458Z,10.40
2019-06-26T13:39:16.488Z,8.15
2019-06-26T13:41:20.715Z,9.15
2019-06-26T13:43:24.780Z,8.33
2019-06-26T13:45:28.720Z,6.72
2019-06-26T13:47:32.691Z,8.13
2019-06-26T13:49:39.728Z,9.28
2019-06-26T13:51:43.868Z,7.03
2019-06-26T13:53:52.432Z,9.48
2019-06-26T13:55:56.558Z,7.72
2019-06-26T13:58:00.593Z,8.60
2019-06-26T14:00:07.291Z,7.80
2019-06-26T14:02:11.379Z,9.13
2019-06-26T14:04:15.535Z,8.48
2019-06-26T14:06:19.615Z,7.37
2019-06-26T14:08:23.767Z,9.10
2019-06-26T14:10:30.767Z,8.28
2019-06-26T14:12:34.697Z,5.67
2019-06-26T14:14:56.260Z,6.37
2019-06-26T14:16:45.895Z,4.62
2019-06-26T14:18:49.761Z,6.50
2019-06-26T14:20:54.224Z,7.00
2019-06-26T14:22:58.239Z,4.40
2019-06-26T14:25:02.336Z,4.00
2019-06-26T14:27:06.478Z,5.37
2019-06-26T14:29:20.729Z,7.03
2019-06-26T14:31:17.867Z,6.65
2019-06-26T14:33:21.939Z,7.12
2019-06-26T14:35:25.888Z,7.25
2019-06-26T14:37:29.865Z,5.92
2019-06-26T14:39:33.975Z,6.00
2019-06-26T14:41:39.202Z,4.70
2019-06-26T14:43:43.648Z,6.17
2019-06-26T14:45:47.756Z,4.85
2019-06-26T14:47:52.037Z,5.20
2019-06-26T14:49:58.737Z,5.75
2019-06-26T14:52:02.788Z,8.30
2019-06-26T14:54:08.402Z,6.03
2019-06-26T14:56:15.219Z,6.03
2019-06-26T14:58:19.365Z,7.25
2019-06-26T15:00:23.557Z,4.60
2019-06-26T15:02:27.627Z,7.72
2019-06-26T15:04:31.708Z,4.15
2019-06-26T15:06:35.726Z,7.95
2019-06-26T15:08:41.228Z,8.05
2019-06-26T15:10:45.456Z,13.80
2019-06-26T15:12:49.886Z,9.18
2019-06-26T15:14:54.041Z,10.18
2019-06-26T15:16:58.221Z,6.17
2019-06-26T15:19:02.292Z,4.35
2019-06-26T15:21:06.335Z,5.03
2019-06-26T15:23:12.411Z,5.70
2019-06-26T15:25:17.295Z,4.00
2019-06-26T15:27:21.267Z,7.67
2019-06-26T15:29:25.686Z,6.35
2019-06-26T15:31:32.864Z,6.15
2019-06-26T15:33:39.895Z,5.22
2019-06-26T15:35:44.148Z,8.68
2019-06-26T15:37:48.342Z,5.90
2019-06-26T15:39:52.536Z,7.47
2019-06-26T15:41:56.625Z,11.33
2019-06-26T15:44:00.648Z,6.35
2019-06-26T15:46:04.883Z,6.65
2019-06-26T15:48:09.296Z,4.62
2019-06-26T15:50:13.644Z,5.65
2019-06-26T15:52:17.708Z,9.68
2019-06-26T15:54:23.078Z,2.85
2019-06-26T15:56:30.126Z,4.95
2019-06-26T15:58:34.188Z,4.72
2019-06-26T16:00:38.190Z,2.35
2019-06-26T16:02:42.244Z,6.75
2019-06-26T16:04:46.388Z,5.53
2019-06-26T16:06:50.629Z,4.20
2019-06-26T16:08:54.736Z,5.30
2019-06-26T16:10:58.808Z,6.42
2019-06-26T16:13:15.888Z,3.42
2019-06-26T16:15:12.860Z,4.62
2019-06-26T16:17:18.506Z,6.72
2019-06-26T16:19:24.521Z,4.05
2019-06-26T16:21:28.688Z,5.83
2019-06-26T16:23:32.639Z,3.08
2019-06-26T16:25:36.955Z,8.43
2019-06-26T16:27:41.050Z,4.40
2019-06-26T16:29:48.477Z,6.00
2019-06-26T16:31:50.867Z,4.53
2019-06-26T16:33:54.949Z,4.25
2019-06-26T16:35:59.012Z,5.47
2019-06-26T16:38:03.199Z,3.92
2019-06-26T16:40:07.403Z,3.65
2019-06-26T16:42:11.376Z,10.72
2019-06-26T16:44:15.551Z,3.85
2019-06-26T16:46:19.638Z,5.58
2019-06-26T16:48:23.611Z,5.70
2019-06-26T16:50:27.732Z,6.35
2019-06-26T16:52:47.478Z,5.92
2019-06-26T16:54:37.438Z,3.40
2019-06-26T16:56:41.628Z,3.42
2019-06-26T16:58:45.671Z,5.33
2019-06-26T17:00:50.838Z,8.10
2019-06-26T17:02:55.016Z,3.83
2019-06-26T17:04:59.076Z,3.27
2019-06-26T17:07:03.128Z,7.47
2019-06-26T17:09:08.960Z,5.35
2019-06-26T17:11:12.994Z,5.75
2019-06-26T17:13:17.126Z,6.22
2019-06-26T17:15:21.446Z,4.10
2019-06-26T17:17:25.515Z,6.60
2019-06-26T17:19:29.652Z,5.83
2019-06-26T17:21:33.788Z,3.72
2019-06-26T17:23:37.788Z,4.55
2019-06-26T17:25:41.847Z,5.83
2019-06-26T17:27:46.018Z,9.83
2019-06-26T17:29:50.026Z,3.42
2019-06-26T17:31:54.029Z,7.05
2019-06-26T17:33:58.119Z,5.33
2019-06-26T17:36:02.196Z,4.90
2019-06-26T17:38:06.194Z,8.58
2019-06-26T17:40:11.564Z,7.12
2019-06-26T17:42:15.548Z,3.05
2019-06-26T17:44:19.696Z,5.05
2019-06-26T17:46:23.947Z,3.20
2019-06-26T17:48:27.913Z,3.80
2019-06-26T17:50:32.043Z,4.37
2019-06-26T17:52:38.498Z,4.22
2019-06-26T17:54:42.083Z,4.87
2019-06-26T17:56:46.250Z,3.05
2019-06-26T17:58:50.250Z,3.47
2019-06-26T18:00:54.279Z,6.97
2019-06-26T18:02:58.416Z,4.83
2019-06-26T18:05:02.640Z,4.58
2019-06-26T18:07:06.647Z,2.27
2019-06-26T18:09:12.352Z,5.78
2019-06-26T18:11:16.528Z,5.20
2019-06-26T18:13:20.498Z,5.78
2019-06-26T18:15:24.592Z,3.60
2019-06-26T18:17:28.777Z,6.60
2019-06-26T18:19:32.681Z,6.00
2019-06-26T18:21:36.688Z,4.65
2019-06-26T18:23:41.025Z,5.53
2019-06-26T18:25:53.879Z,5.45
2019-06-26T18:27:50.816Z,5.40
2019-06-26T18:29:55.181Z,4.28
2019-06-26T18:31:59.278Z,5.28
2019-06-26T18:34:03.270Z,5.03
2019-06-26T18:36:07.399Z,5.50
2019-06-26T18:38:11.309Z,4.17
2019-06-26T18:40:15.398Z,4.90
2019-06-26T18:42:19.510Z,6.00
2019-06-26T18:44:23.490Z,4.78
2019-06-26T18:46:27.516Z,5.45
2019-06-26T18:48:31.791Z,4.17
2019-06-26T18:50:35.898Z,4.55
2019-06-26T18:52:39.908Z,5.65
2019-06-26T18:54:43.988Z,4.62
2019-06-26T18:56:48.076Z,6.97
2019-06-26T18:58:52.126Z,6.78
2019-06-26T19:00:56.320Z,3.15
2019-06-26T19:03:00.309Z,6.03
2019-06-26T19:05:08.529Z,5.22
2019-06-26T19:07:12.817Z,5.28
2019-06-26T19:09:16.868Z,4.12
2019-06-26T19:11:20.817Z,8.63
2019-06-26T19:13:24.890Z,7.00
2019-06-26T19:15:28.854Z,8.35
2019-06-26T19:17:32.901Z,8.58
2019-06-26T19:19:37.048Z,7.00
2019-06-26T19:21:40.979Z,8.63
2019-06-26T19:23:45.063Z,9.75
2019-06-26T19:25:49.382Z,7.00
2019-06-26T19:27:53.448Z,5.33
2019-06-26T19:29:57.370Z,6.97
2019-06-26T19:32:01.576Z,5.80
2019-06-26T19:34:05.688Z,6.10
2019-06-26T19:36:09.703Z,8.23
2019-06-26T19:38:13.789Z,8.68
2019-06-26T19:40:18.138Z,7.67
2019-06-26T19:42:22.119Z,6.70
2019-06-26T19:44:26.248Z,6.33
2019-06-26T19:46:30.304Z,5.77
2019-06-26T19:48:34.414Z,7.30
2019-06-26T19:50:38.379Z,4.00
2019-06-26T19:52:42.406Z,6.40
2019-06-26T19:54:46.495Z,6.43
2019-06-26T19:56:50.659Z,3.73
2019-06-26T19:58:54.657Z,5.10
2019-06-26T20:00:58.698Z,9.37
2019-06-26T20:03:03.226Z,9.90
2019-06-26T20:05:07.868Z,5.73
2019-06-26T20:07:12.058Z,7.27
2019-06-26T20:09:16.248Z,9.20
2019-06-26T20:11:20.288Z,6.67
2019-06-26T20:13:24.287Z,5.70
2019-06-26T20:15:28.386Z,5.90
2019-06-26T20:17:32.409Z,4.60
2019-06-26T20:19:37.216Z,6.80
2019-06-26T20:21:41.406Z,5.75
2019-06-26T20:23:45.468Z,5.70
2019-06-26T20:25:49.575Z,7.20
2019-06-26T20:27:56.880Z,7.67
2019-06-26T20:29:59.389Z,7.27
2019-06-26T20:32:03.549Z,8.10
2019-06-26T20:34:07.758Z,6.57
2019-06-26T20:36:11.728Z,5.47
2019-06-26T20:38:15.718Z,8.33
2019-06-26T20:40:20.208Z,7.80
2019-06-26T20:42:24.233Z,6.53
2019-06-26T20:44:28.452Z,7.20
2019-06-26T20:46:32.557Z,4.07
2019-06-26T20:48:36.589Z,4.83
2019-06-26T20:50:40.608Z,4.77
2019-06-26T20:52:45.018Z,3.83
2019-06-26T20:55:00.625Z,4.67
2019-06-26T20:56:54.759Z,2.80
2019-06-26T20:59:00.316Z,7.87
2019-06-26T21:01:04.528Z,6.13
2019-06-26T21:03:08.709Z,5.43
2019-06-26T21:05:13.097Z,3.90
2019-06-26T21:07:17.168Z,6.47
2019-06-26T21:09:21.248Z,5.87
2019-06-26T21:11:25.486Z,8.70
2019-06-26T21:13:29.476Z,3.73
2019-06-26T21:15:33.528Z,3.83
2019-06-26T21:17:37.839Z,9.33
2019-06-26T21:19:41.830Z,5.63
2019-06-26T21:21:45.787Z,3.73
2019-06-26T21:23:49.908Z,4.47
2019-06-26T21:25:53.900Z,5.33
2019-06-26T21:27:57.918Z,3.93
2019-06-26T21:30:02.006Z,4.30
2019-06-26T21:32:06.050Z,6.10
2019-06-26T21:34:10.125Z,5.50
2019-06-26T21:36:14.178Z,7.27
2019-06-26T21:38:18.251Z,4.63
2019-06-26T21:40:22.393Z,5.67
2019-06-26T21:42:26.455Z,5.43
2019-06-26T21:44:30.510Z,7.37
2019-06-26T21:46:34.708Z,6.47
2019-06-26T21:48:38.768Z,4.63
2019-06-26T21:50:42.835Z,4.63
2019-06-26T21:52:48.481Z,4.87
2019-06-26T21:54:52.718Z,7.13
2019-06-26T21:56:56.831Z,6.50
2019-06-26T21:59:00.887Z,6.17
2019-06-26T22:01:05.277Z,10.60
2019-06-26T22:03:09.638Z,6.80
2019-06-26T22:05:14.610Z,5.07
2019-06-26T22:07:18.815Z,5.80
2019-06-26T22:09:23.109Z,7.43
2019-06-26T22:11:27.087Z,4.13
2019-06-26T22:13:31.270Z,6.37
2019-06-26T22:15:35.375Z,3.17
2019-06-26T22:17:39.508Z,4.57
2019-06-26T22:19:43.534Z,10.10
2019-06-26T22:21:47.499Z,6.10
2019-06-26T22:23:51.628Z,9.27
2019-06-26T22:25:55.768Z,5.70
2019-06-26T22:27:59.849Z,5.57
2019-06-26T22:30:05.001Z,6.00
2019-06-26T22:32:09.302Z,5.73
2019-06-26T22:34:13.303Z,8.00
2019-06-26T22:36:17.249Z,8.73
2019-06-26T22:38:21.448Z,4.53
2019-06-26T22:40:25.507Z,6.77
2019-06-26T22:42:29.438Z,5.70
2019-06-26T22:44:33.489Z,6.97
2019-06-26T22:46:37.510Z,8.90
2019-06-26T22:48:41.587Z,6.80
2019-06-26T22:50:45.812Z,4.30
2019-06-26T22:52:49.679Z,6.97
2019-06-26T22:54:53.651Z,6.67
2019-06-26T22:56:57.800Z,6.30
2019-06-26T22:59:01.763Z,6.20
2019-06-26T23:01:05.855Z,6.97
2019-06-26T23:03:09.899Z,4.57
2019-06-26T23:05:14.177Z,6.67
2019-06-26T23:07:18.225Z,5.03
2019-06-26T23:09:22.388Z,7.47
2019-06-26T23:11:26.446Z,7.80
2019-06-26T23:13:30.373Z,6.17
2019-06-26T23:15:34.548Z,11.43
2019-06-26T23:17:38.675Z,9.40
2019-06-26T23:19:42.848Z,6.17
2019-06-26T23:21:46.887Z,7.00
2019-06-26T23:23:50.847Z,5.43
2019-06-26T23:25:56.190Z,4.83
2019-06-26T23:28:00.375Z,7.07
2019-06-26T23:30:06.640Z,5.67
2019-06-26T23:32:10.738Z,4.03
2019-06-26T23:34:14.938Z,9.53
2019-06-26T23:36:18.927Z,7.13
2019-06-26T23:38:23.098Z,6.70
2019-06-26T23:40:27.111Z,7.47
2019-06-26T23:42:31.097Z,5.33
2019-06-26T23:44:35.127Z,6.80
2019-06-26T23:46:39.247Z,4.17
2019-06-26T23:48:45.676Z,3.90
2019-06-26T23:50:48.984Z,5.07
2019-06-26T23:52:53.135Z,9.10
2019-06-26T23:54:57.166Z,5.10
2019-06-26T23:57:01.131Z,5.03
2019-06-26T23:59:05.515Z,6.47
